createdAt,value
2023-02-20T00:02:27.862Z,3.83
2023-02-20T00:04:56.614Z,3.50
2023-02-20T00:07:24.678Z,3.40
2023-02-20T00:09:53.326Z,3.22
2023-02-20T00:12:21.494Z,3.65
2023-02-20T00:14:49.898Z,3.40
2023-02-20T00:17:19.826Z,3.58
2023-02-20T00:19:47.947Z,3.50
2023-02-20T00:22:16.718Z,3.42
2023-02-20T00:24:44.977Z,3.78
2023-02-20T00:27:14.009Z,3.65
2023-02-20T00:29:42.217Z,3.73
2023-02-20T00:32:10.712Z,3.35
2023-02-20T00:34:40.669Z,3.73
2023-02-20T00:37:08.958Z,3.08
2023-02-20T00:39:37.456Z,3.22
2023-02-20T00:42:07.588Z,3.07
2023-02-20T00:44:36.325Z,3.60
2023-02-20T00:47:04.602Z,3.47
2023-02-20T00:49:34.367Z,3.38
2023-02-20T00:52:16.695Z,3.92
2023-02-20T00:54:44.953Z,3.90
2023-02-20T00:57:13.991Z,3.90
2023-02-20T00:59:42.153Z,3.80
2023-02-20T01:02:10.711Z,3.60
2023-02-20T01:04:39.595Z,3.42
2023-02-20T01:07:08.496Z,3.60
2023-02-20T01:09:38.242Z,3.50
2023-02-20T01:12:08.136Z,3.55
2023-02-20T01:14:37.941Z,3.57
2023-02-20T01:17:06.212Z,3.30
2023-02-20T01:19:34.842Z,3.40
2023-02-20T01:22:06.324Z,3.67
2023-02-20T01:24:35.120Z,3.67
2023-02-20T01:27:05.562Z,3.60
2023-02-20T01:29:33.660Z,3.50
2023-02-20T01:32:01.923Z,3.38
2023-02-20T01:34:30.095Z,3.35
2023-02-20T01:37:00.141Z,3.70
2023-02-20T01:39:30.998Z,3.50
2023-02-20T01:42:02.808Z,3.40
2023-02-20T01:44:35.928Z,3.47
2023-02-20T01:47:08.539Z,3.53
2023-02-20T01:49:42.752Z,3.60
2023-02-20T01:52:18.791Z,3.97
2023-02-20T01:54:53.959Z,3.50
2023-02-20T01:57:27.140Z,3.70
2023-02-20T02:00:04.292Z,3.83
2023-02-20T02:02:49.317Z,3.63
2023-02-20T02:05:20.160Z,3.75
2023-02-20T02:10:44.894Z,3.53
2023-02-20T02:13:13.996Z,3.58
2023-02-20T02:16:22.529Z,3.78
2023-02-20T02:19:05.463Z,3.35
2023-02-20T02:22:17.158Z,3.63
2023-02-20T02:25:24.521Z,3.47
2023-02-20T02:28:59.085Z,3.92
2023-02-20T02:32:14.270Z,3.60
2023-02-20T02:35:27.065Z,3.80
2023-02-20T02:38:12.254Z,4.00
2023-02-20T02:40:49.188Z,3.78
2023-02-20T02:43:31.093Z,3.40
2023-02-20T02:46:08.941Z,3.90
2023-02-20T02:48:44.458Z,3.38
2023-02-20T02:51:19.562Z,3.47
2023-02-20T02:54:10.841Z,3.33
2023-02-20T02:56:45.346Z,3.60
2023-02-20T02:59:21.019Z,3.40
2023-02-20T03:02:00.423Z,3.30
2023-02-20T03:04:34.631Z,3.17
2023-02-20T03:07:10.662Z,3.40
2023-02-20T03:09:47.928Z,2.90
2023-02-20T03:12:20.230Z,2.80
2023-02-20T03:15:15.193Z,2.90
2023-02-20T03:17:53.487Z,3.03
2023-02-20T03:20:24.038Z,2.90
2023-02-20T03:22:57.339Z,3.10
2023-02-20T03:25:32.369Z,2.97
2023-02-20T03:28:07.358Z,2.97
2023-02-20T03:34:00.953Z,3.10
2023-02-20T03:36:53.958Z,2.95
2023-02-20T03:39:46.616Z,3.38
2023-02-20T03:42:37.634Z,2.92
2023-02-20T03:45:15.859Z,3.20
2023-02-20T03:47:52.902Z,3.45
2023-02-20T03:50:22.680Z,2.92
2023-02-20T03:52:52.090Z,3.10
2023-02-20T03:55:20.761Z,3.15
2023-02-20T03:57:55.078Z,3.05
2023-02-20T04:00:30.822Z,2.85
2023-02-20T04:03:10.199Z,3.00
2023-02-20T04:05:50.170Z,2.87
2023-02-20T04:08:26.007Z,2.70
2023-02-20T04:10:59.816Z,3.50
2023-02-20T04:13:33.124Z,3.25
2023-02-20T04:16:04.189Z,3.10
2023-02-20T04:18:36.447Z,3.35
2023-02-20T04:21:17.993Z,3.17
2023-02-20T04:23:57.569Z,3.50
2023-02-20T04:26:25.967Z,3.20
2023-02-20T04:28:56.829Z,2.60
2023-02-20T04:31:26.415Z,3.20
2023-02-20T04:33:55.237Z,2.90
2023-02-20T04:36:27.520Z,3.40
2023-02-20T04:38:59.149Z,3.13
2023-02-20T04:41:31.954Z,3.83
2023-02-20T04:44:19.394Z,4.60
2023-02-20T04:46:50.478Z,3.70
2023-02-20T04:49:18.628Z,3.58
2023-02-20T04:51:52.220Z,3.25
2023-02-20T04:54:20.508Z,3.10
2023-02-20T04:56:49.989Z,2.72
2023-02-20T04:59:20.241Z,3.70
2023-02-20T05:01:52.221Z,3.50
2023-02-20T05:04:22.473Z,3.22
2023-02-20T05:06:55.038Z,3.00
2023-02-20T05:09:24.288Z,3.40
2023-02-20T05:11:52.972Z,3.22
2023-02-20T05:14:23.942Z,3.15
2023-02-20T05:16:52.588Z,2.90
2023-02-20T05:19:21.112Z,3.00
2023-02-20T05:22:08.183Z,2.83
2023-02-20T05:24:36.795Z,3.58
2023-02-20T05:27:06.018Z,3.20
2023-02-20T05:29:56.366Z,4.18
2023-02-20T05:32:28.062Z,3.30
2023-02-20T05:35:16.638Z,3.47
2023-02-20T05:37:44.903Z,5.93
2023-02-20T05:40:14.106Z,3.50
2023-02-20T05:42:42.923Z,3.13
2023-02-20T05:45:12.923Z,3.70
2023-02-20T05:47:41.471Z,3.80
2023-02-20T05:50:11.001Z,3.55
2023-02-20T05:52:39.103Z,3.75
2023-02-20T05:55:08.476Z,4.20
2023-02-20T05:57:39.021Z,3.90
2023-02-20T06:00:27.533Z,3.60
2023-02-20T06:02:56.372Z,3.65
2023-02-20T06:05:24.863Z,3.67
2023-02-20T06:07:53.337Z,3.30
2023-02-20T06:10:22.253Z,3.28
2023-02-20T06:12:51.208Z,3.60
2023-02-20T06:15:19.591Z,3.00
2023-02-20T06:17:50.620Z,3.63
2023-02-20T06:20:20.810Z,3.30
2023-02-20T06:22:49.590Z,3.80
2023-02-20T06:25:18.554Z,3.50
2023-02-20T06:27:46.693Z,3.38
2023-02-20T06:30:15.687Z,3.25
2023-02-20T06:32:44.611Z,3.80
2023-02-20T06:35:14.961Z,3.40
2023-02-20T06:37:43.093Z,2.67
2023-02-20T06:40:13.193Z,3.08
2023-02-20T06:42:41.456Z,3.05
2023-02-20T06:45:13.501Z,2.90
2023-02-20T06:47:44.045Z,3.17
2023-02-20T06:50:13.675Z,3.22
2023-02-20T06:52:41.911Z,2.80
2023-02-20T06:57:56.721Z,3.15
2023-02-20T07:00:25.639Z,3.03
2023-02-20T07:02:54.974Z,3.53
2023-02-20T07:05:24.660Z,2.92
2023-02-20T07:11:04.950Z,2.90
2023-02-20T07:13:33.663Z,2.50
2023-02-20T07:16:02.068Z,3.08
2023-02-20T07:18:30.286Z,3.05
2023-02-20T07:21:00.655Z,4.10
2023-02-20T07:23:47.224Z,4.97
2023-02-20T07:26:21.282Z,4.55
2023-02-20T07:28:54.162Z,2.70
2023-02-20T07:31:23.592Z,2.78
2023-02-20T07:33:52.933Z,2.80
2023-02-20T07:36:23.116Z,2.75
2023-02-20T07:38:56.990Z,5.43
2023-02-20T07:41:29.535Z,5.22
2023-02-20T07:44:00.031Z,6.63
2023-02-20T07:46:29.293Z,3.20
2023-02-20T07:48:58.357Z,2.60
2023-02-20T07:51:28.911Z,4.38
2023-02-20T07:53:57.193Z,3.70
2023-02-20T07:56:26.126Z,3.78
2023-02-20T07:58:55.044Z,2.85
2023-02-20T08:01:24.435Z,3.15
2023-02-20T08:03:54.779Z,3.80
2023-02-20T08:06:24.884Z,3.20
2023-02-20T08:08:54.978Z,2.20
2023-02-20T08:11:25.295Z,3.13
2023-02-20T08:13:55.564Z,2.80
2023-02-20T08:16:24.916Z,3.70
2023-02-20T08:18:53.566Z,2.30
2023-02-20T08:21:22.968Z,2.30
2023-02-20T08:23:52.746Z,2.78
2023-02-20T08:26:23.044Z,2.50
2023-02-20T08:28:52.604Z,2.90
2023-02-20T08:31:31.807Z,2.40
2023-02-20T08:34:00.987Z,3.75
2023-02-20T08:36:30.502Z,2.50
2023-02-20T08:39:00.850Z,2.50
2023-02-20T08:41:30.958Z,2.30
2023-02-20T08:43:59.810Z,2.53
2023-02-20T08:46:28.767Z,2.50
2023-02-20T08:48:57.056Z,2.17
2023-02-20T08:51:26.477Z,3.58
2023-02-20T08:53:54.743Z,2.00
2023-02-20T08:56:23.873Z,1.92
2023-02-20T08:58:54.781Z,2.25
2023-02-20T09:01:23.050Z,2.85
2023-02-20T09:03:51.746Z,2.28
2023-02-20T09:06:20.227Z,2.33
2023-02-20T09:08:48.521Z,2.33
2023-02-20T09:11:16.763Z,2.35
2023-02-20T09:13:45.378Z,2.35
2023-02-20T09:16:16.740Z,2.00
2023-02-20T09:18:46.800Z,2.20
2023-02-20T09:21:19.342Z,1.92
2023-02-20T09:23:48.039Z,2.17
2023-02-20T09:26:16.964Z,1.95
2023-02-20T09:28:45.071Z,1.85
2023-02-20T09:31:14.619Z,2.20
2023-02-20T09:33:51.100Z,2.08
2023-02-20T09:36:19.732Z,2.20
2023-02-20T09:38:48.009Z,2.30
2023-02-20T09:41:35.634Z,2.47
2023-02-20T09:44:17.044Z,2.15
2023-02-20T09:46:51.621Z,1.90
2023-02-20T09:49:26.193Z,2.33
2023-02-20T09:52:00.445Z,2.00
2023-02-20T09:54:33.718Z,1.90
2023-02-20T09:57:07.068Z,1.75
2023-02-20T09:59:43.150Z,2.03
2023-02-20T10:02:20.830Z,2.08
2023-02-20T10:05:01.172Z,2.38
2023-02-20T10:07:33.954Z,2.30
2023-02-20T10:10:20.804Z,2.20
2023-02-20T10:13:06.063Z,2.78
2023-02-20T10:15:47.030Z,2.83
2023-02-20T10:18:31.837Z,2.65
2023-02-20T10:21:09.639Z,2.72
2023-02-20T10:23:54.019Z,2.35
2023-02-20T10:26:38.536Z,2.30
2023-02-20T10:29:19.074Z,2.78
2023-02-20T10:31:55.749Z,2.47
2023-02-20T10:34:33.732Z,2.30
2023-02-20T10:37:09.905Z,2.03
2023-02-20T10:39:39.839Z,2.20
2023-02-20T10:42:17.473Z,2.45
2023-02-20T10:44:54.678Z,2.25
2023-02-20T10:47:33.268Z,2.03
2023-02-20T10:50:12.773Z,1.92
2023-02-20T10:52:50.917Z,1.90
2023-02-20T10:55:26.943Z,1.73
2023-02-20T10:58:05.104Z,1.90
2023-02-20T11:00:40.484Z,2.10
2023-02-20T11:03:19.249Z,1.77
2023-02-20T11:05:57.997Z,2.20
2023-02-20T11:08:26.644Z,1.92
2023-02-20T11:11:19.930Z,1.80
2023-02-20T11:13:48.063Z,2.00
2023-02-20T11:16:27.385Z,2.00
2023-02-20T11:19:07.219Z,1.80
2023-02-20T11:21:41.728Z,1.48
2023-02-20T11:24:29.663Z,1.60
2023-02-20T11:27:04.318Z,1.48
2023-02-20T11:29:48.951Z,1.80
2023-02-20T11:32:38.126Z,1.65
2023-02-20T11:35:33.094Z,2.72
2023-02-20T11:38:38.010Z,1.40
2023-02-20T11:41:27.714Z,2.00
2023-02-20T11:44:27.142Z,5.07
2023-02-20T11:47:21.324Z,1.90
2023-02-20T11:49:50.545Z,2.53
2023-02-20T11:52:21.384Z,1.90
2023-02-20T11:55:12.995Z,1.80
2023-02-20T11:57:46.220Z,1.83
2023-02-20T12:00:20.026Z,1.77
2023-02-20T12:02:55.599Z,11.85
2023-02-20T12:05:39.132Z,4.07
2023-02-20T12:08:43.023Z,5.28
2023-02-20T12:11:17.613Z,7.22
2023-02-20T12:13:49.128Z,2.22
2023-02-20T12:16:46.270Z,2.08
2023-02-20T12:19:21.259Z,1.95
2023-02-20T12:22:03.647Z,2.13
2023-02-20T12:24:57.896Z,2.40
2023-02-20T12:27:59.542Z,2.08
2023-02-20T12:30:54.374Z,1.90
2023-02-20T12:33:51.120Z,2.05
2023-02-20T12:36:32.336Z,2.10
2023-02-20T12:39:07.797Z,2.40
2023-02-20T12:41:56.745Z,2.13
2023-02-20T12:44:50.285Z,1.97
2023-02-20T12:47:30.781Z,1.45
2023-02-20T12:50:28.441Z,1.50
2023-02-20T12:53:14.261Z,1.50
2023-02-20T12:56:04.419Z,1.90
2023-02-20T12:58:49.000Z,1.83
2023-02-20T13:01:34.187Z,1.30
2023-02-20T13:04:21.439Z,1.52
2023-02-20T13:07:03.836Z,1.50
2023-02-20T13:09:38.027Z,1.93
2023-02-20T13:12:14.539Z,1.42
2023-02-20T13:14:56.284Z,1.77
2023-02-20T13:17:40.573Z,1.92
2023-02-20T13:20:23.692Z,1.40
2023-02-20T13:23:07.207Z,1.50
2023-02-20T13:25:44.615Z,1.50
2023-02-20T13:28:43.069Z,1.50
2023-02-20T13:31:24.942Z,1.38
2023-02-20T13:34:33.543Z,1.95
2023-02-20T13:37:02.516Z,1.75
2023-02-20T13:39:48.452Z,2.78
2023-02-20T13:42:36.920Z,2.23
2023-02-20T13:45:44.977Z,2.53
2023-02-20T13:48:21.861Z,2.28
2023-02-20T13:50:51.433Z,1.80
2023-02-20T13:53:19.923Z,2.60
2023-02-20T13:55:48.028Z,3.33
2023-02-20T13:58:17.743Z,2.80
2023-02-20T14:00:52.356Z,3.47
2023-02-20T14:03:25.210Z,2.00
2023-02-20T14:06:16.142Z,2.33
2023-02-20T14:08:46.589Z,1.63
2023-02-20T14:11:26.969Z,1.80
2023-02-20T14:13:58.796Z,2.00
2023-02-20T14:16:33.247Z,2.30
2023-02-20T14:19:06.305Z,2.30
2023-02-20T14:21:37.535Z,2.53
2023-02-20T14:24:20.640Z,1.60
2023-02-20T14:26:51.713Z,1.63
2023-02-20T14:29:25.999Z,2.40
2023-02-20T14:31:57.053Z,1.88
2023-02-20T14:34:38.892Z,1.90
2023-02-20T14:37:17.849Z,2.57
2023-02-20T14:39:59.480Z,1.45
2023-02-20T14:42:27.948Z,2.33
2023-02-20T14:45:03.461Z,1.60
2023-02-20T14:47:32.870Z,2.20
2023-02-20T14:50:17.873Z,1.97
2023-02-20T14:52:48.035Z,1.85
2023-02-20T14:55:19.691Z,1.67
2023-02-20T14:57:51.457Z,2.17
2023-02-20T15:00:35.631Z,2.08
2023-02-20T15:03:28.009Z,3.30
2023-02-20T15:06:03.748Z,2.00
2023-02-20T15:08:36.312Z,2.22
2023-02-20T15:11:10.021Z,1.80
2023-02-20T15:13:43.287Z,1.77
2023-02-20T15:16:21.355Z,2.10
2023-02-20T15:18:50.823Z,2.40
2023-02-20T15:21:38.422Z,2.50
2023-02-20T15:24:32.027Z,2.20
2023-02-20T15:27:17.831Z,2.17
2023-02-20T15:29:47.745Z,2.35
2023-02-20T15:32:22.491Z,2.30
2023-02-20T15:34:55.342Z,1.98
2023-02-20T15:37:37.991Z,2.00
2023-02-20T15:40:23.602Z,1.50
2023-02-20T15:42:57.571Z,1.90
2023-02-20T15:45:28.225Z,2.08
2023-02-20T15:47:59.929Z,1.83
2023-02-20T15:50:28.421Z,1.98
2023-02-20T15:52:58.859Z,2.10
2023-02-20T15:55:35.942Z,2.10
2023-02-20T15:58:11.186Z,2.23
2023-02-20T16:00:39.714Z,2.42
2023-02-20T16:03:07.967Z,2.33
2023-02-20T16:05:36.670Z,3.25
2023-02-20T16:08:05.349Z,3.03
2023-02-20T16:10:35.498Z,1.85
2023-02-20T16:13:04.986Z,2.10
2023-02-20T16:15:33.409Z,1.90
2023-02-20T16:18:02.221Z,1.50
2023-02-20T16:20:31.832Z,2.37
2023-02-20T16:23:01.331Z,2.97
2023-02-20T16:25:29.903Z,2.43
2023-02-20T16:27:59.540Z,2.90
2023-02-20T16:30:36.216Z,3.10
2023-02-20T16:33:14.810Z,2.42
2023-02-20T16:38:30.122Z,1.90
2023-02-20T16:41:00.324Z,1.58
2023-02-20T16:43:30.970Z,2.17
2023-02-20T16:46:00.112Z,2.40
2023-02-20T16:48:28.389Z,2.13
2023-02-20T16:50:57.775Z,2.55
2023-02-20T16:53:31.784Z,2.20
2023-02-20T16:56:00.010Z,2.42
2023-02-20T16:58:28.151Z,3.42
2023-02-20T17:00:58.380Z,4.03
2023-02-20T17:03:27.779Z,4.05
2023-02-20T17:06:00.289Z,4.60
2023-02-20T17:08:29.915Z,2.60
2023-02-20T17:10:58.212Z,2.00
2023-02-20T17:13:27.159Z,2.30
2023-02-20T17:15:58.230Z,2.58
2023-02-20T17:18:26.443Z,2.78
2023-02-20T17:20:55.270Z,2.38
2023-02-20T17:23:24.176Z,2.40
2023-02-20T17:25:52.339Z,2.15
2023-02-20T17:28:21.145Z,5.50
2023-02-20T17:30:54.558Z,5.10
2023-02-20T17:33:26.171Z,2.70
2023-02-20T17:35:55.227Z,2.30
2023-02-20T17:38:24.345Z,2.80
2023-02-20T17:40:52.689Z,4.40
2023-02-20T17:43:22.124Z,5.07
2023-02-20T17:45:50.252Z,3.13
2023-02-20T17:48:18.589Z,2.70
2023-02-20T17:50:48.668Z,2.80
2023-02-20T17:53:18.252Z,2.83
2023-02-20T17:55:46.416Z,2.60
2023-02-20T17:58:15.051Z,3.00
2023-02-20T18:00:43.483Z,2.40
2023-02-20T18:03:14.810Z,2.67
2023-02-20T18:05:44.184Z,3.28
2023-02-20T18:08:13.804Z,4.38
2023-02-20T18:10:42.174Z,2.70
2023-02-20T18:13:10.398Z,2.15
2023-02-20T18:15:40.681Z,2.50
2023-02-20T18:18:08.949Z,2.40
2023-02-20T18:20:38.101Z,3.83
2023-02-20T18:23:06.513Z,4.20
2023-02-20T18:25:40.790Z,3.67
2023-02-20T18:28:10.952Z,5.05
2023-02-20T18:30:39.556Z,4.38
2023-02-20T18:33:26.883Z,5.22
2023-02-20T18:36:07.636Z,4.82
2023-02-20T18:38:37.800Z,4.50
2023-02-20T18:41:12.343Z,4.95
2023-02-20T18:43:44.873Z,4.88
2023-02-20T18:46:15.899Z,5.30
2023-02-20T18:49:03.924Z,4.80
2023-02-20T18:51:35.943Z,4.85
2023-02-20T18:54:06.759Z,4.40
2023-02-20T18:56:38.848Z,5.30
2023-02-20T18:59:07.026Z,5.37
2023-02-20T19:01:35.368Z,5.70
2023-02-20T19:04:04.104Z,4.40
2023-02-20T23:26:08.749Z,3.40
2023-02-20T23:28:55.555Z,3.17
2023-02-20T23:31:51.022Z,4.33
2023-02-20T23:34:38.026Z,5.10
2023-02-20T23:37:23.968Z,4.57
2023-02-20T23:40:10.359Z,3.50
2023-02-20T23:42:56.487Z,3.93
2023-02-20T23:45:44.669Z,3.03
2023-02-20T23:48:31.420Z,14.53
2023-02-20T23:51:19.257Z,23.40
2023-02-20T23:54:05.337Z,28.60
2023-02-20T23:56:51.177Z,30.63
2023-02-20T23:59:36.905Z,29.10
